This is the latest recevied weather packets stored in our database for station/object KE0PRS. If no packets are shown the sender has not sent any weather packets the latest 1 day(s).
| Time | Temp. | Humidity | Pressure | Rain* | Wind** | Luminosity | Snow |
|---|---|---|---|---|---|---|---|
| 1778107588 | 13.89° C | 50% | 1019.5 hPa | 0 mm | - | 247 W/m² | - |
| 1778103947 | 12.22° C | 57% | 1019.6 hPa | 0 mm | - | 257 W/m² | - |
| 1778101521 | 12.78° C | 58% | 1019.9 hPa | 0 mm | - | 703 W/m² | - |
| 1778099399 | 12.22° C | 61% | 1020.3 hPa | 0 mm | - | 786 W/m² | - |
| 1778097883 | 11.67° C | 66% | 1020.3 hPa | 0 mm | - | 553 W/m² | - |
| 1778096973 | 11.11° C | 67% | 1020.8 hPa | 0 mm | - | 592 W/m² | - |
| 1778091517 | 10.56° C | 68% | 1021.2 hPa | 0 mm | - | 255 W/m² | - |
| 1778091215 | 10.56° C | 67% | 1021.1 hPa | 0 mm | - | 222 W/m² | - |
| 1778090304 | 10.56° C | 66% | 1021.1 hPa | 0 mm | - | 385 W/m² | - |
| 1778090001 | 10.56° C | 67% | 1021.1 hPa | 0 mm | - | 305 W/m² | - |
| 1778086670 | 9.44° C | 76% | 1021.5 hPa | 0 mm | - | 418 W/m² | - |
| 1778086367 | 8.89° C | 76% | 1021.2 hPa | 0 mm | - | 418 W/m² | - |
| 1778086064 | 8.33° C | 77% | 1021.6 hPa | 0 mm | - | 318 W/m² | - |
| 1778082730 | 7.22° C | 87% | 1020.8 hPa | 0 mm | - | 279 W/m² | - |
| 1778080986 | 6.67° C | 91% | 1020.9 hPa | 0 mm | - | 151 W/m² | - |
| 1778080685 | 6.67° C | 91% | 1020.9 hPa | 0 mm | - | 135 W/m² | - |
| 1778079775 | 6.67° C | 92% | 1020.9 hPa | 0 mm | - | 96 W/m² | - |
| 1778078260 | 6.11° C | 93% | 1021 hPa | 0 mm | - | 73 W/m² | - |
| 1778074021 | 6.11° C | 95% | 1020.6 hPa | 1.27 mm | - | 30 W/m² | - |
| 1778073111 | 6.11° C | 95% | 1019.8 hPa | 0 mm | - | 31 W/m² | - |
| 1778072808 | 6.11° C | 96% | 1019.7 hPa | 0 mm | - | 21 W/m² | - |
| 1778071901 | 6.11° C | 96% | 1019.8 hPa | 0 mm | - | 17 W/m² | - |
| 1778071599 | 6.11° C | 96% | 1019.7 hPa | 0 mm | - | 9 W/m² | - |
| 1778068574 | 6.11° C | 95% | 1018.9 hPa | 0 mm | - | 4 W/m² | - |
| 1778065850 | 6.11° C | 95% | 1018.2 hPa | 1.78 mm | - | 0 W/m² | - |
* Rain latest hour (hover to see other rain measurements)
** Current wind speed in m/s (hover to see current wind gust speed)